createdAt,value
2023-02-07T00:01:08.948Z,79574.47
2023-02-07T00:03:38.153Z,79582.63
2023-02-07T00:06:07.753Z,79594.88
2023-02-07T00:08:35.642Z,79594.88
2023-02-07T00:11:06.555Z,79598.97
2023-02-07T00:13:34.761Z,79598.97
2023-02-07T00:16:02.919Z,79590.81
2023-02-07T00:18:30.653Z,79596.91
2023-02-07T00:21:00.551Z,79611.22
2023-02-07T00:23:28.414Z,79623.44
2023-02-07T00:25:56.362Z,79623.44
2023-02-07T00:28:24.743Z,79639.78
2023-02-07T00:30:53.080Z,79647.94
2023-02-07T00:33:20.962Z,79654.06
2023-02-07T00:35:48.749Z,79662.22
2023-02-07T00:38:17.896Z,79662.22
2023-02-07T00:40:45.661Z,79652.03
2023-02-07T00:43:21.502Z,79649.97
2023-02-07T00:45:56.834Z,79660.19
2023-02-07T00:48:24.633Z,79676.50
2023-02-07T00:50:52.468Z,79678.56
2023-02-07T00:53:21.672Z,79686.72
2023-02-07T00:55:49.605Z,79694.88
2023-02-07T00:58:17.583Z,79705.09
2023-02-07T01:00:45.482Z,79713.25
2023-02-07T01:03:13.279Z,79713.25
2023-02-07T01:05:41.235Z,79717.34
2023-02-07T01:08:09.273Z,79713.25
2023-02-07T01:10:40.865Z,79717.34
2023-02-07T01:13:08.965Z,79713.25
2023-02-07T01:15:38.004Z,79717.34
2023-02-07T01:18:06.726Z,79711.22
2023-02-07T01:20:34.855Z,79709.16
2023-02-07T01:23:02.720Z,79709.16
2023-02-07T01:25:30.509Z,79711.22
2023-02-07T01:27:59.668Z,79705.09
2023-02-07T01:30:27.772Z,79709.16
2023-02-07T01:32:55.588Z,79711.22
2023-02-07T01:35:23.358Z,79707.13
2023-02-07T01:37:51.571Z,79696.91
2023-02-07T01:40:19.669Z,79686.72
2023-02-07T01:42:47.417Z,79688.75
2023-02-07T01:45:26.834Z,79676.50
2023-02-07T01:47:56.318Z,79664.28
2023-02-07T01:50:24.561Z,79658.16
2023-02-07T01:52:52.627Z,79668.34
2023-02-07T01:55:23.362Z,79656.09
2023-02-07T01:57:51.445Z,79647.94
2023-02-07T02:00:21.982Z,79633.66
2023-02-07T02:02:49.829Z,79623.44
2023-02-07T02:05:20.118Z,79617.31
2023-02-07T02:07:48.185Z,79615.28
2023-02-07T02:10:18.053Z,79617.31
2023-02-07T02:12:56.828Z,79611.22
2023-02-07T02:15:35.968Z,79605.09
2023-02-07T02:18:27.761Z,79615.28
2023-02-07T02:21:18.164Z,79613.25
2023-02-07T02:24:10.173Z,79609.16
2023-02-07T02:26:58.970Z,79611.22
2023-02-07T02:30:08.348Z,79603.03
2023-02-07T02:33:12.098Z,79598.97
2023-02-07T02:35:46.848Z,79596.91
2023-02-07T02:38:22.446Z,79592.84
2023-02-07T02:40:56.177Z,79617.31
2023-02-07T02:43:32.680Z,79611.22
2023-02-07T02:46:04.231Z,79598.97
2023-02-07T02:48:36.301Z,79582.63
2023-02-07T02:51:05.825Z,79576.50
2023-02-07T02:53:33.626Z,79570.38
2023-02-07T02:56:33.917Z,79549.97
2023-02-07T02:59:21.982Z,79549.97
2023-02-07T03:01:57.465Z,79549.97
2023-02-07T03:04:50.141Z,79549.97
2023-02-07T03:07:33.265Z,79533.66
2023-02-07T03:10:08.911Z,79547.94
2023-02-07T03:12:46.256Z,79549.97
2023-02-07T03:15:22.191Z,79521.41
2023-02-07T03:17:55.945Z,79521.41
2023-02-07T03:20:31.396Z,79547.94
2023-02-07T03:23:01.727Z,79554.06
2023-02-07T03:25:31.935Z,79560.19
2023-02-07T03:27:59.873Z,79554.06
2023-02-07T03:30:32.346Z,79545.91
2023-02-07T03:33:03.469Z,79549.97
2023-02-07T03:35:39.085Z,79539.78
2023-02-07T03:38:08.300Z,79531.63
2023-02-07T03:40:41.240Z,79533.66
2023-02-07T03:43:13.958Z,79529.56
2023-02-07T03:45:42.914Z,79543.84
2023-02-07T03:48:11.064Z,79549.97
2023-02-07T03:50:40.472Z,79545.91
2023-02-07T03:53:08.656Z,79549.97
2023-02-07T03:55:36.802Z,79564.25
2023-02-07T03:58:04.908Z,79562.22
2023-02-07T04:00:32.663Z,79568.34
2023-02-07T04:03:00.473Z,79574.47
2023-02-07T04:05:28.340Z,79584.69
2023-02-07T04:07:57.635Z,79596.91
2023-02-07T04:10:25.454Z,79631.63
2023-02-07T04:12:53.303Z,79639.78
2023-02-07T04:15:21.260Z,79643.84
2023-02-07T04:17:49.090Z,79656.09
2023-02-07T04:20:16.943Z,79672.44
2023-02-07T04:22:44.729Z,79678.56
2023-02-07T04:25:13.887Z,79686.72
2023-02-07T04:27:41.875Z,79688.75
2023-02-07T04:30:11.048Z,79701.00
2023-02-07T04:32:38.910Z,79713.25
2023-02-07T04:35:07.184Z,79725.50
2023-02-07T04:37:34.949Z,79731.63
2023-02-07T04:40:02.759Z,79750.00
2023-02-07T04:42:31.955Z,79758.16
2023-02-07T04:44:59.724Z,79762.22
2023-02-07T04:47:27.621Z,79758.16
2023-02-07T04:49:55.357Z,79762.22
2023-02-07T04:52:23.122Z,79766.31
2023-02-07T04:54:50.974Z,79774.47
2023-02-07T04:57:18.728Z,79766.31
2023-02-07T04:59:47.912Z,79774.47
2023-02-07T05:02:16.042Z,79782.66
2023-02-07T05:04:43.823Z,79794.88
2023-02-07T05:07:11.605Z,79792.84
2023-02-07T05:09:39.419Z,79792.84
2023-02-07T05:12:07.542Z,79794.88
2023-02-07T05:14:35.300Z,79805.09
2023-02-07T05:17:04.434Z,79817.34
2023-02-07T05:19:32.637Z,79819.38
2023-02-07T05:22:00.470Z,79825.50
2023-02-07T05:24:28.298Z,79821.41
2023-02-07T05:26:56.046Z,79821.41
2023-02-07T05:29:23.825Z,79819.38
2023-02-07T05:32:08.972Z,79827.53
2023-02-07T05:34:38.150Z,79829.59
2023-02-07T05:37:05.972Z,79833.66
2023-02-07T05:39:33.752Z,79835.72
2023-02-07T05:42:01.507Z,79852.03
2023-02-07T05:44:29.366Z,79860.19
2023-02-07T05:46:57.116Z,79852.03
2023-02-07T05:49:24.902Z,79852.03
2023-02-07T05:51:54.044Z,79864.28
2023-02-07T05:54:21.865Z,79872.44
2023-02-07T05:56:49.611Z,79884.69
2023-02-07T05:59:17.558Z,79890.81
2023-02-07T06:01:45.480Z,79901.03
2023-02-07T06:04:13.246Z,79909.19
2023-02-07T06:06:43.051Z,79909.19
2023-02-07T06:09:13.126Z,79907.16
2023-02-07T06:11:40.932Z,79903.06
2023-02-07T06:14:08.689Z,79896.94
2023-02-07T06:16:36.461Z,79911.22
2023-02-07T06:19:04.279Z,79905.09
2023-02-07T06:21:45.442Z,79917.34
2023-02-07T06:24:16.006Z,79915.31
2023-02-07T06:26:46.598Z,79913.28
2023-02-07T06:29:14.998Z,79909.19
2023-02-07T06:31:43.046Z,79905.09
2023-02-07T06:34:10.895Z,79905.09
2023-02-07T06:36:38.722Z,79905.09
2023-02-07T06:39:06.617Z,79903.06
2023-02-07T06:41:35.733Z,79898.97
2023-02-07T06:44:03.557Z,79888.78
2023-02-07T06:46:31.374Z,79888.78
2023-02-07T06:48:59.229Z,79896.94
2023-02-07T06:51:27.240Z,79896.94
2023-02-07T06:53:55.381Z,79896.94
2023-02-07T06:56:23.186Z,79896.94
2023-02-07T06:58:52.361Z,79868.38
2023-02-07T07:01:22.385Z,79825.50
2023-02-07T07:03:51.824Z,79788.78
2023-02-07T07:06:19.740Z,79782.66
2023-02-07T07:08:47.500Z,79776.53
2023-02-07T07:11:15.278Z,79778.56
2023-02-07T07:13:43.083Z,79776.53
2023-02-07T07:16:12.248Z,79782.66
2023-02-07T07:18:40.094Z,79778.56
2023-02-07T07:21:08.220Z,79766.31
2023-02-07T07:23:36.026Z,79776.53
2023-02-07T07:26:03.982Z,79778.56
2023-02-07T07:28:31.890Z,79762.22
2023-02-07T07:31:04.547Z,79743.88
2023-02-07T07:33:34.400Z,79725.50
2023-02-07T07:36:03.221Z,79717.34
2023-02-07T07:38:31.619Z,79713.25
2023-02-07T07:40:59.814Z,79703.03
2023-02-07T07:43:28.164Z,79701.00
2023-02-07T07:45:57.922Z,79692.84
2023-02-07T07:48:26.236Z,79705.09
2023-02-07T07:50:55.730Z,79688.75
2023-02-07T07:53:23.510Z,79684.69
2023-02-07T07:55:52.135Z,79668.34
2023-02-07T07:58:20.524Z,79670.38
2023-02-07T08:00:48.802Z,79668.34
2023-02-07T08:03:17.232Z,79656.09
2023-02-07T08:05:45.384Z,79649.97
2023-02-07T08:08:14.968Z,79633.66
2023-02-07T08:10:43.285Z,79619.38
2023-02-07T08:13:11.212Z,79605.09
2023-02-07T08:15:39.431Z,79611.22
2023-02-07T08:18:07.520Z,79586.72
2023-02-07T08:20:35.674Z,79590.81
2023-02-07T08:23:03.439Z,79594.88
2023-02-07T08:25:32.641Z,79574.47
2023-02-07T08:28:02.086Z,79560.19
2023-02-07T08:30:31.176Z,79545.91
2023-02-07T08:32:59.080Z,79547.94
2023-02-07T08:35:27.510Z,79543.84
2023-02-07T08:37:56.583Z,79533.66
2023-02-07T08:40:24.432Z,79525.50
2023-02-07T08:42:53.815Z,79517.31
2023-02-07T08:45:21.724Z,79509.16
2023-02-07T08:47:49.505Z,79501.00
2023-02-07T08:50:18.782Z,79492.84
2023-02-07T08:52:46.755Z,79468.34
2023-02-07T08:55:14.536Z,79460.19
2023-02-07T08:57:42.283Z,79458.16
2023-02-07T09:00:13.024Z,79443.84
2023-02-07T09:02:41.181Z,79431.63
2023-02-07T09:05:09.245Z,79415.28
2023-02-07T09:07:37.326Z,79411.22
2023-02-07T09:10:06.753Z,79403.03
2023-02-07T09:12:34.987Z,79392.84
2023-02-07T09:15:03.002Z,79394.88
2023-02-07T09:17:32.138Z,79386.72
2023-02-07T09:19:59.907Z,79370.38
2023-02-07T09:22:27.758Z,79366.31
2023-02-07T09:24:55.557Z,79343.88
2023-02-07T09:27:23.296Z,79323.44
2023-02-07T09:29:51.083Z,79305.09
2023-02-07T09:32:19.163Z,79280.59
2023-02-07T09:34:48.269Z,79243.88
2023-02-07T09:37:16.059Z,79233.66
2023-02-07T09:39:44.635Z,79217.34
2023-02-07T09:42:25.708Z,79211.22
2023-02-07T09:45:00.883Z,79221.41
2023-02-07T09:47:29.488Z,79215.28
2023-02-07T09:50:03.656Z,79207.13
2023-02-07T09:52:36.391Z,79201.00
2023-02-07T09:55:05.527Z,79186.72
2023-02-07T09:57:39.027Z,79198.97
2023-02-07T10:00:19.593Z,79188.78
2023-02-07T10:02:53.673Z,79190.81
2023-02-07T10:05:30.682Z,79162.25
2023-02-07T10:07:58.651Z,79172.44
2023-02-07T10:10:42.404Z,79150.00
2023-02-07T10:13:44.828Z,79141.84
2023-02-07T10:16:23.587Z,79150.00
2023-02-07T10:18:56.865Z,79119.38
2023-02-07T10:21:35.669Z,79088.78
2023-02-07T10:24:30.343Z,79058.16
2023-02-07T10:27:05.275Z,79035.72
2023-02-07T10:29:47.804Z,79023.47
2023-02-07T10:32:20.508Z,78972.47
2023-02-07T10:34:50.120Z,78956.16
2023-02-07T10:37:22.728Z,78954.09
2023-02-07T10:39:58.503Z,78999.00
2023-02-07T10:42:28.374Z,78982.69
2023-02-07T10:44:56.147Z,78962.28
2023-02-07T10:47:26.178Z,78937.78
2023-02-07T10:49:55.607Z,78921.47
2023-02-07T10:52:37.161Z,78903.09
2023-02-07T10:55:07.757Z,78901.06
2023-02-07T10:57:35.953Z,78901.06
2023-02-07T11:00:07.886Z,78896.97
2023-02-07T11:02:52.454Z,78880.66
2023-02-07T11:05:39.129Z,78874.53
2023-02-07T11:08:22.775Z,78872.50
2023-02-07T11:10:52.847Z,78860.25
2023-02-07T11:13:23.569Z,78839.84
2023-02-07T11:15:56.881Z,78843.91
2023-02-07T11:18:37.487Z,78837.81
2023-02-07T11:21:23.518Z,78819.44
2023-02-07T11:23:55.794Z,78852.09
2023-02-07T11:26:25.188Z,78854.13
2023-02-07T11:28:55.479Z,78848.00
2023-02-07T11:31:30.570Z,78805.16
2023-02-07T11:34:10.106Z,78776.59
2023-02-07T11:36:39.090Z,78778.63
2023-02-07T11:39:18.955Z,78778.63
2023-02-07T11:41:55.952Z,78772.50
2023-02-07T11:44:25.988Z,78756.19
2023-02-07T11:46:57.502Z,78739.84
2023-02-07T11:49:27.428Z,78717.41
2023-02-07T11:51:58.633Z,78717.41
2023-02-07T11:54:29.103Z,78723.53
2023-02-07T11:57:03.736Z,78721.50
2023-02-07T11:59:32.295Z,78705.19
2023-02-07T12:02:04.513Z,78686.81
2023-02-07T12:04:36.183Z,78672.53
2023-02-07T12:07:07.474Z,78664.38
2023-02-07T12:09:44.409Z,78672.53
2023-02-07T12:12:17.516Z,78676.59
2023-02-07T12:14:52.262Z,78688.84
2023-02-07T12:17:26.193Z,78688.84
2023-02-07T12:19:57.717Z,78707.22
2023-02-07T12:22:30.685Z,78686.81
2023-02-07T12:25:06.932Z,78656.22
2023-02-07T12:27:40.791Z,78656.22
2023-02-07T12:30:18.530Z,78648.03
2023-02-07T12:32:52.280Z,78639.88
2023-02-07T12:35:25.819Z,78658.25
2023-02-07T12:38:01.331Z,78674.56
2023-02-07T12:40:35.947Z,78688.84
2023-02-07T12:43:09.154Z,78692.94
2023-02-07T12:45:54.300Z,78668.44
2023-02-07T12:48:35.348Z,78631.72
2023-02-07T12:51:18.512Z,78668.44
2023-02-07T12:54:03.714Z,78664.38
2023-02-07T12:56:46.934Z,78635.81
2023-02-07T12:59:25.346Z,78617.44
2023-02-07T13:02:02.987Z,78619.47
2023-02-07T13:04:54.149Z,78615.41
2023-02-07T13:07:39.345Z,78629.69
2023-02-07T13:10:21.597Z,78615.41
2023-02-07T13:12:58.343Z,78617.44
2023-02-07T13:15:38.869Z,78611.31
2023-02-07T13:18:12.120Z,78597.03
2023-02-07T13:20:52.046Z,78601.13
2023-02-07T13:23:22.937Z,78590.91
2023-02-07T13:25:55.307Z,78586.84
2023-02-07T13:28:30.297Z,78597.03
2023-02-07T13:31:00.047Z,78599.06
2023-02-07T13:33:35.475Z,78582.75
2023-02-07T13:36:13.097Z,78595.00
2023-02-07T13:38:54.596Z,78595.00
2023-02-07T13:41:33.938Z,78599.06
2023-02-07T13:44:10.690Z,78603.16
2023-02-07T13:46:56.749Z,78590.91
2023-02-07T13:49:38.358Z,78582.75
2023-02-07T13:52:13.128Z,78590.91
2023-02-07T13:54:49.466Z,78603.16
2023-02-07T13:57:40.231Z,78623.56
2023-02-07T14:00:21.248Z,78611.31
2023-02-07T14:02:53.293Z,78607.25
2023-02-07T14:05:27.397Z,78611.31
2023-02-07T14:07:59.373Z,78627.66
2023-02-07T14:10:45.742Z,78623.56
2023-02-07T14:13:29.214Z,78623.56
2023-02-07T14:16:05.648Z,78631.72
2023-02-07T14:18:42.234Z,78635.81
2023-02-07T14:21:33.024Z,78623.56
2023-02-07T14:24:18.929Z,78635.81
2023-02-07T14:27:06.643Z,78635.81
2023-02-07T14:30:13.998Z,78643.97
2023-02-07T14:32:46.903Z,78643.97
2023-02-07T14:35:31.892Z,78646.00
2023-02-07T14:38:09.603Z,78656.22
2023-02-07T14:41:01.850Z,78656.22
2023-02-07T14:43:50.546Z,78656.22
2023-02-07T14:46:31.749Z,78652.13
2023-02-07T14:49:03.969Z,78652.13
2023-02-07T14:51:39.399Z,78652.13
2023-02-07T14:54:09.618Z,78666.41
2023-02-07T14:57:09.627Z,78680.69
2023-02-07T14:59:42.809Z,78697.00
2023-02-07T15:02:30.370Z,78715.38
2023-02-07T15:05:10.231Z,78721.50
2023-02-07T15:07:38.074Z,78737.81
2023-02-07T15:10:15.557Z,78745.97
2023-02-07T15:12:44.634Z,78750.06
2023-02-07T15:15:19.946Z,78766.38
2023-02-07T15:17:48.557Z,78762.31
2023-02-07T15:20:20.977Z,78776.59
2023-02-07T15:22:51.052Z,78792.91
2023-02-07T15:25:19.476Z,78799.03
2023-02-07T15:28:00.649Z,78817.41
2023-02-07T15:30:28.737Z,78823.53
2023-02-07T15:32:56.555Z,78831.69
2023-02-07T15:35:27.991Z,78848.00
2023-02-07T15:38:13.739Z,78848.00
2023-02-07T15:40:42.573Z,78856.16
2023-02-07T15:43:25.134Z,78864.31
2023-02-07T15:46:09.584Z,78882.69
2023-02-07T15:48:49.856Z,78884.72
2023-02-07T15:51:22.236Z,78894.94
2023-02-07T15:53:52.455Z,78909.22
2023-02-07T15:56:20.570Z,78917.38
2023-02-07T15:58:50.303Z,78935.75
2023-02-07T16:01:24.252Z,78962.28
2023-02-07T16:03:52.949Z,78978.59
2023-02-07T16:06:24.313Z,78994.91
2023-02-07T16:08:54.394Z,79003.06
2023-02-07T16:11:36.138Z,79015.31
2023-02-07T16:14:13.837Z,79023.47
2023-02-07T16:16:47.757Z,79035.72
2023-02-07T16:19:18.263Z,79037.75
2023-02-07T16:21:53.371Z,79043.88
2023-02-07T16:24:27.507Z,79054.09
2023-02-07T16:26:58.470Z,79064.28
2023-02-07T16:29:27.123Z,79088.78
2023-02-07T16:31:56.362Z,79111.22
2023-02-07T16:34:24.808Z,79125.50
2023-02-07T16:36:55.707Z,79129.59
2023-02-07T16:39:24.336Z,79129.59
2023-02-07T16:41:56.308Z,79127.56
2023-02-07T16:44:25.614Z,79125.50
2023-02-07T16:46:56.240Z,79129.59
2023-02-07T16:49:26.210Z,79137.75
2023-02-07T16:51:55.429Z,79141.84
2023-02-07T16:54:23.316Z,79145.91
2023-02-07T16:56:54.010Z,79158.16
2023-02-07T16:59:22.914Z,79166.31
2023-02-07T17:01:53.074Z,79158.16
2023-02-07T17:04:21.626Z,79152.03
2023-02-07T17:06:49.873Z,79166.31
2023-02-07T17:09:20.943Z,79182.66
2023-02-07T17:11:48.825Z,79201.00
2023-02-07T17:14:16.785Z,79211.22
2023-02-07T17:16:44.813Z,79211.22
2023-02-07T17:19:14.870Z,79215.28
2023-02-07T17:21:43.074Z,79211.22
2023-02-07T17:24:11.834Z,79225.50
2023-02-07T17:26:43.788Z,79235.72
2023-02-07T17:29:13.497Z,79250.00
2023-02-07T17:31:41.336Z,79262.22
2023-02-07T17:34:09.314Z,79264.28
2023-02-07T17:36:37.202Z,79266.31
2023-02-07T17:39:05.031Z,79264.28
2023-02-07T17:41:33.930Z,79276.53
2023-02-07T17:44:03.059Z,79282.63
2023-02-07T17:46:31.022Z,79296.94
2023-02-07T17:48:58.792Z,79290.81
2023-02-07T17:51:28.055Z,79292.84
2023-02-07T17:53:57.037Z,79294.88
2023-02-07T17:56:27.275Z,79305.09
2023-02-07T17:58:56.649Z,79309.16
2023-02-07T18:01:25.785Z,79309.16
2023-02-07T18:03:54.901Z,79313.25
2023-02-07T18:06:24.826Z,79301.00
2023-02-07T18:08:53.761Z,79309.16
2023-02-07T18:11:24.949Z,79311.22
2023-02-07T18:13:52.864Z,79317.34
2023-02-07T18:16:22.994Z,79317.34
2023-02-07T18:18:53.231Z,79309.16
2023-02-07T18:21:21.345Z,79321.41
2023-02-07T18:23:49.371Z,79329.56
2023-02-07T18:26:19.284Z,79341.81
2023-02-07T18:28:47.195Z,79362.22
2023-02-07T18:31:17.480Z,79374.47
2023-02-07T18:33:46.084Z,79378.56
2023-02-07T18:36:16.655Z,79378.56
2023-02-07T18:38:45.085Z,79382.63
2023-02-07T18:41:14.690Z,79380.59
2023-02-07T18:43:42.701Z,79384.69
2023-02-07T18:46:10.805Z,79386.72
2023-02-07T18:48:38.792Z,79394.88
2023-02-07T18:51:07.800Z,79401.00
2023-02-07T18:53:37.034Z,79403.03
2023-02-07T18:56:06.192Z,79411.22
2023-02-07T18:58:34.378Z,79409.16
2023-02-07T19:01:04.383Z,79403.03
2023-02-07T19:03:32.787Z,79403.03
2023-02-07T19:06:01.098Z,79415.28
2023-02-07T19:08:29.334Z,79415.28
2023-02-07T19:11:01.655Z,79427.53
2023-02-07T19:13:29.923Z,79429.56
2023-02-07T19:16:03.528Z,79435.69
2023-02-07T19:18:31.394Z,79439.78
2023-02-07T19:21:04.343Z,79447.94
2023-02-07T19:23:32.229Z,79443.84
2023-02-07T19:26:01.700Z,79439.78
2023-02-07T19:28:29.801Z,79452.03
2023-02-07T19:30:57.660Z,79468.34
2023-02-07T19:33:25.805Z,79464.25
2023-02-07T19:35:53.563Z,79472.44
2023-02-07T19:38:21.477Z,79468.34
2023-02-07T19:40:56.838Z,79468.34
2023-02-07T19:43:26.258Z,79472.44
2023-02-07T19:45:54.399Z,79480.59
2023-02-07T19:48:22.417Z,79480.59
2023-02-07T19:50:58.773Z,79486.72
2023-02-07T19:53:26.918Z,79488.75
2023-02-07T19:55:55.410Z,79498.97
2023-02-07T19:58:23.402Z,79496.91
2023-02-07T20:00:52.492Z,79501.00
2023-02-07T20:03:20.318Z,79501.00
2023-02-07T20:05:48.090Z,79507.13
2023-02-07T20:08:15.834Z,79511.19
2023-02-07T20:10:44.458Z,79513.25
2023-02-07T20:13:13.040Z,79517.31
2023-02-07T20:15:41.664Z,79507.13
2023-02-07T20:18:11.683Z,79498.97
2023-02-07T20:20:41.935Z,79505.09
2023-02-07T20:23:10.445Z,79509.16
2023-02-07T20:25:38.973Z,79509.16
2023-02-07T20:28:08.739Z,79521.41
2023-02-07T20:30:37.109Z,79537.72
2023-02-07T20:33:05.121Z,79547.94
2023-02-07T20:35:34.224Z,79558.16
2023-02-07T20:38:02.629Z,79554.06
2023-02-07T20:40:30.653Z,79552.03
2023-02-07T20:42:58.427Z,79554.06
2023-02-07T20:45:26.260Z,79558.16
2023-02-07T20:47:54.028Z,79574.47
2023-02-07T20:50:21.882Z,79588.75
2023-02-07T20:52:51.141Z,79590.81
2023-02-07T20:55:19.142Z,79596.91
2023-02-07T20:57:46.901Z,79598.97
2023-02-07T21:00:15.852Z,79605.09
2023-02-07T21:02:43.730Z,79611.22
2023-02-07T21:05:11.520Z,79611.22
2023-02-07T21:07:39.345Z,79601.00
2023-02-07T21:10:09.263Z,79598.97
2023-02-07T21:12:37.028Z,79611.22
2023-02-07T21:15:05.117Z,79611.22
2023-02-07T21:17:32.866Z,79621.41
2023-02-07T21:20:00.599Z,79631.63
2023-02-07T21:22:28.538Z,79652.03
2023-02-07T21:24:56.262Z,79656.09
2023-02-07T21:27:25.336Z,79660.19
2023-02-07T21:29:53.148Z,79652.03
2023-02-07T21:32:20.873Z,79652.03
2023-02-07T21:34:48.796Z,79660.19
2023-02-07T21:37:16.635Z,79660.19
2023-02-07T21:39:44.386Z,79658.16
2023-02-07T21:42:12.175Z,79660.19
2023-02-07T21:44:41.296Z,79660.19
2023-02-07T21:47:09.031Z,79666.31
2023-02-07T21:49:36.918Z,79664.28
2023-02-07T21:52:05.863Z,79668.34
2023-02-07T21:54:33.699Z,79672.44
2023-02-07T21:57:01.466Z,79670.38
2023-02-07T21:59:29.794Z,79678.56
2023-02-07T22:01:59.133Z,79668.34
2023-02-07T22:04:27.060Z,79660.19
2023-02-07T22:06:54.859Z,79652.03
2023-02-07T22:09:23.561Z,79649.97
2023-02-07T22:11:51.337Z,79647.94
2023-02-07T22:14:20.976Z,79654.06
2023-02-07T22:16:52.185Z,79662.22
2023-02-07T22:19:21.993Z,79656.09
2023-02-07T22:21:50.418Z,79664.28
2023-02-07T22:24:19.644Z,79664.28
2023-02-07T22:26:47.518Z,79668.34
2023-02-07T22:29:15.357Z,79682.63
2023-02-07T22:31:43.717Z,79688.75
2023-02-07T22:34:13.250Z,79692.84
2023-02-07T22:36:44.342Z,79701.00
2023-02-07T22:39:13.864Z,79709.16
2023-02-07T22:41:41.744Z,79698.97
2023-02-07T22:44:09.507Z,79692.84
2023-02-07T22:46:37.564Z,79694.88
2023-02-07T22:49:05.358Z,79701.00
2023-02-07T22:51:35.848Z,79701.00
2023-02-07T22:54:08.440Z,79715.28
2023-02-07T22:56:38.308Z,79715.28
2023-02-07T22:59:06.882Z,79723.47
2023-02-07T23:01:36.673Z,79729.59
2023-02-07T23:04:06.109Z,79737.75
2023-02-07T23:06:34.040Z,79735.69
2023-02-07T23:09:02.060Z,79727.53
2023-02-07T23:11:31.147Z,79711.22
2023-02-07T23:13:58.946Z,79713.25
2023-02-07T23:16:29.493Z,79715.28
2023-02-07T23:18:58.834Z,79713.25
2023-02-07T23:21:27.888Z,79713.25
2023-02-07T23:23:57.154Z,79713.25
2023-02-07T23:26:26.803Z,79717.34
2023-02-07T23:28:55.990Z,79725.50
2023-02-07T23:31:25.840Z,79725.50
2023-02-07T23:33:54.250Z,79725.50
2023-02-07T23:36:22.505Z,79727.53
2023-02-07T23:38:50.913Z,79735.69
2023-02-07T23:41:18.775Z,79745.91
2023-02-07T23:43:47.108Z,79756.13
2023-02-07T23:46:17.480Z,79754.06
2023-02-07T23:48:45.823Z,79762.22
2023-02-07T23:51:14.721Z,79760.19
2023-02-07T23:53:42.978Z,79756.13
2023-02-07T23:56:14.466Z,79754.06
2023-02-07T23:58:42.652Z,79756.13
